Time;durP1;ratioP1;P1;durP2;ratioP2;P2;SDS_P1;SDS_P2;PMS_P1;PMS_P2;Temp;Humidity;BMP_temperature;BMP_pressure;BME280_temperature;BME280_humidity;BME280_pressure;Samples;Min_cycle;Max_cycle;Signal;HPM_P1;HPM_P2
2023/07/27 00:01:55;;;;;;;;;;;19.00;78.90;;;;;;4969831;28;20379;-78
2023/07/27 00:04:22;;;;;;;;;;;18.90;78.80;;;;;;4968418;28;19920;-78
2023/07/27 00:06:48;;;;;;;;;;;19.00;78.90;;;;;;4984605;28;20282;-78
2023/07/27 00:09:15;;;;;;;;;;;18.90;78.80;;;;;;4969500;28;19993;-79
2023/07/27 00:11:40;;;;;;;;;;;18.90;78.90;;;;;;4969523;28;20009;-76
2023/07/27 00:14:06;;;;;;;;;;;18.90;78.90;;;;;;4969289;28;19996;-79
2023/07/27 00:16:32;;;;;;;;;;;18.90;78.90;;;;;;4969422;28;19980;-79
2023/07/27 00:18:58;;;;;;;;;;;18.90;78.90;;;;;;4984300;28;19918;-79
2023/07/27 00:21:23;;;;;;;;;;;18.90;78.90;;;;;;4969513;28;19918;-79
2023/07/27 00:23:49;;;;;;;;;;;18.90;78.90;;;;;;4969586;28;19910;-77
2023/07/27 00:26:14;;;;;;;;;;;18.80;78.90;;;;;;4970951;28;20282;-79
2023/07/27 00:28:40;;;;;;;;;;;18.80;78.90;;;;;;4955304;28;19961;-79
2023/07/27 00:31:05;;;;;;;;;;;18.80;78.90;;;;;;4970276;28;19922;-79
2023/07/27 00:33:31;;;;;;;;;;;18.80;78.90;;;;;;4969288;28;19954;-78
2023/07/27 00:35:57;;;;;;;;;;;18.70;78.90;;;;;;4984218;28;20382;-79
2023/07/27 00:38:23;;;;;;;;;;;18.70;78.90;;;;;;4969148;28;20409;-79
2023/07/27 00:40:48;;;;;;;;;;;18.70;79.00;;;;;;4969532;28;19914;-79
2023/07/27 00:43:14;;;;;;;;;;;18.70;79.00;;;;;;4969215;28;20373;-79
2023/07/27 00:45:40;;;;;;;;;;;18.70;79.00;;;;;;4969160;28;19924;-79
2023/07/27 00:48:05;;;;;;;;;;;18.70;79.00;;;;;;4983867;28;20409;-79
2023/07/27 00:50:34;;;;;;;;;;;18.70;79.00;;;;;;4969346;28;19945;-79
2023/07/27 00:53:00;;;;;;;;;;;18.70;79.00;;;;;;4983924;28;19974;-79
2023/07/27 00:55:25;;;;;;;;;;;18.70;79.00;;;;;;4969106;28;19929;-79
2023/07/27 00:57:51;;;;;;;;;;;18.70;79.00;;;;;;4968976;28;20095;-78
2023/07/27 01:00:17;;;;;;;;;;;18.70;79.00;;;;;;4969094;28;19966;-79
2023/07/27 01:02:42;;;;;;;;;;;18.70;79.00;;;;;;4968960;28;20409;-79
2023/07/27 01:05:08;;;;;;;;;;;18.60;79.00;;;;;;4968930;28;19914;-78
2023/07/27 01:07:34;;;;;;;;;;;18.60;79.00;;;;;;4969194;28;19914;-79
2023/07/27 01:09:59;;;;;;;;;;;18.70;79.10;;;;;;4968961;28;19968;-79
2023/07/27 01:12:37;;;;;;;;;;;18.70;79.10;;;;;;4951599;28;20077;-79
2023/07/27 01:15:23;;;;;;;;;;;18.70;79.10;;;;;;4968906;28;19911;-79
2023/07/27 01:17:57;;;;;;;;;;;18.70;79.10;;;;;;4969320;28;20252;-79
2023/07/27 01:20:26;;;;;;;;;;;18.70;79.10;;;;;;4969137;28;19918;-79
2023/07/27 01:23:03;;;;;;;;;;;18.60;79.00;;;;;;4983898;28;20358;-78
2023/07/27 01:25:42;;;;;;;;;;;18.60;79.00;;;;;;4968742;28;20406;-79
2023/07/27 01:28:11;;;;;;;;;;;18.60;79.00;;;;;;4972515;28;19934;-78
2023/07/27 01:30:44;;;;;;;;;;;18.50;79.00;;;;;;4972390;28;20008;-78
2023/07/27 01:33:11;;;;;;;;;;;18.50;79.10;;;;;;4972519;28;20032;-79
2023/07/27 01:35:46;;;;;;;;;;;18.50;79.10;;;;;;4972467;28;19910;-79
2023/07/27 01:38:12;;;;;;;;;;;18.50;79.10;;;;;;4972363;28;19910;-79
2023/07/27 01:40:39;;;;;;;;;;;18.40;79.10;;;;;;4972338;28;19913;-79
2023/07/27 01:43:05;;;;;;;;;;;18.40;79.10;;;;;;4986984;28;19925;-79
2023/07/27 01:45:30;;;;;;;;;;;18.40;79.10;;;;;;4972330;28;19918;-79
2023/07/27 01:47:57;;;;;;;;;;;18.40;79.10;;;;;;4972369;28;19914;-79
2023/07/27 01:50:23;;;;;;;;;;;18.40;79.10;;;;;;4971939;28;20347;-79
2023/07/27 01:52:48;;;;;;;;;;;18.40;79.10;;;;;;4971781;28;19914;-79
2023/07/27 01:55:15;;;;;;;;;;;18.40;79.10;;;;;;4971851;28;19914;-78
2023/07/27 01:57:42;;;;;;;;;;;18.30;79.10;;;;;;4971944;28;19914;-79
2023/07/27 02:00:08;;;;;;;;;;;18.30;79.10;;;;;;4986822;28;20013;-79
2023/07/27 02:02:33;;;;;;;;;;;18.20;79.10;;;;;;4972508;28;19946;-78
2023/07/27 02:04:59;;;;;;;;;;;18.20;79.00;;;;;;4972641;28;19953;-79
2023/07/27 02:07:24;;;;;;;;;;;18.10;79.10;;;;;;4973256;28;20016;-78
2023/07/27 02:09:50;;;;;;;;;;;18.00;79.10;;;;;;4972065;28;19915;-79
2023/07/27 02:12:19;;;;;;;;;;;18.00;79.20;;;;;;4971681;28;20290;-79
2023/07/27 02:15:01;;;;;;;;;;;17.90;79.20;;;;;;4971566;28;19914;-79
2023/07/27 02:17:35;;;;;;;;;;;17.90;79.20;;;;;;4971441;28;20426;-79
2023/07/27 02:20:01;;;;;;;;;;;17.90;79.20;;;;;;4971664;28;19910;-79
2023/07/27 02:22:28;;;;;;;;;;;17.90;79.30;;;;;;4971674;28;19922;-79
2023/07/27 02:24:53;;;;;;;;;;;17.90;79.30;;;;;;4971584;28;19926;-79
2023/07/27 02:27:19;;;;;;;;;;;17.90;79.30;;;;;;4971557;28;19914;-79
2023/07/27 02:29:45;;;;;;;;;;;17.90;79.20;;;;;;4986238;28;19930;-79
2023/07/27 02:32:11;;;;;;;;;;;17.90;79.20;;;;;;4971397;28;19922;-78
2023/07/27 02:34:37;;;;;;;;;;;17.90;79.20;;;;;;4986147;28;19915;-78
2023/07/27 02:37:02;;;;;;;;;;;17.90;79.20;;;;;;4986205;28;20398;-78
2023/07/27 02:39:28;;;;;;;;;;;17.90;79.20;;;;;;4986358;28;19910;-78
2023/07/27 02:41:53;;;;;;;;;;;17.80;79.10;;;;;;4971273;28;19918;-79
2023/07/27 02:44:19;;;;;;;;;;;17.80;79.20;;;;;;4971277;28;20002;-79
2023/07/27 02:46:44;;;;;;;;;;;17.80;79.20;;;;;;4971539;28;19922;-79
2023/07/27 02:49:10;;;;;;;;;;;17.80;79.20;;;;;;4953745;28;19926;-79
2023/07/27 02:51:35;;;;;;;;;;;17.70;79.10;;;;;;4971136;28;19951;-79
2023/07/27 02:54:01;;;;;;;;;;;17.70;79.20;;;;;;4971009;28;19945;-79
2023/07/27 02:56:27;;;;;;;;;;;17.70;79.20;;;;;;4971005;28;19937;-79
2023/07/27 02:58:52;;;;;;;;;;;17.70;79.20;;;;;;4985768;28;19914;-79
2023/07/27 03:01:18;;;;;;;;;;;17.80;79.30;;;;;;4985759;28;19921;-78
2023/07/27 03:03:44;;;;;;;;;;;17.80;79.20;;;;;;4970786;28;19921;-79
2023/07/27 03:06:09;;;;;;;;;;;17.80;79.20;;;;;;4970792;28;19918;-79
2023/07/27 03:08:35;;;;;;;;;;;17.80;79.20;;;;;;4985747;28;19918;-79
2023/07/27 03:11:02;;;;;;;;;;;17.80;79.20;;;;;;4985561;28;19924;-79
2023/07/27 03:13:27;;;;;;;;;;;17.80;79.20;;;;;;4970735;28;19944;-79
2023/07/27 03:15:53;;;;;;;;;;;17.90;79.20;;;;;;4970688;28;19950;-79
2023/07/27 03:18:20;;;;;;;;;;;17.90;79.20;;;;;;4970683;28;20393;-79
2023/07/27 03:20:46;;;;;;;;;;;17.90;79.20;;;;;;4970558;28;20004;-79
2023/07/27 03:23:12;;;;;;;;;;;17.90;79.20;;;;;;4985404;28;20010;-79
2023/07/27 03:25:37;;;;;;;;;;;17.90;79.20;;;;;;4970492;28;19975;-78
2023/07/27 03:28:07;;;;;;;;;;;17.80;79.10;;;;;;4952928;28;19910;-78
2023/07/27 03:30:33;;;;;;;;;;;17.80;79.20;;;;;;4985164;28;19926;-78
2023/07/27 03:32:59;;;;;;;;;;;17.80;79.20;;;;;;4970154;28;20256;-78
2023/07/27 03:35:24;;;;;;;;;;;17.80;79.20;;;;;;4970353;28;19936;-79
2023/07/27 03:37:51;;;;;;;;;;;17.70;79.20;;;;;;4985001;28;19918;-79
2023/07/27 03:40:17;;;;;;;;;;;17.70;79.20;;;;;;4970446;28;19910;-79
2023/07/27 03:42:43;;;;;;;;;;;17.80;79.30;;;;;;4952723;28;20390;-78
2023/07/27 03:45:08;;;;;;;;;;;17.80;79.30;;;;;;4974399;28;19928;-78
2023/07/27 03:47:34;;;;;;;;;;;17.80;79.30;;;;;;4986044;28;20138;-69
2023/07/27 03:49:59;;;;;;;;;;;17.80;79.30;;;;;;4969546;28;19999;-79
2023/07/27 03:52:25;;;;;;;;;;;17.80;79.30;;;;;;4969933;28;19910;-79
2023/07/27 03:54:51;;;;;;;;;;;17.80;79.20;;;;;;4984950;28;19914;-79
2023/07/27 03:57:16;;;;;;;;;;;17.90;79.30;;;;;;4984669;28;20410;-79
2023/07/27 03:59:42;;;;;;;;;;;17.90;79.30;;;;;;4969502;28;20382;-78
2023/07/27 04:02:07;;;;;;;;;;;17.90;79.30;;;;;;4969731;28;19921;-79
2023/07/27 04:04:33;;;;;;;;;;;17.90;79.30;;;;;;4984526;28;20012;-79
2023/07/27 04:06:58;;;;;;;;;;;17.90;79.30;;;;;;4969495;28;20005;-79
2023/07/27 04:09:24;;;;;;;;;;;17.90;79.30;;;;;;4984696;28;19926;-79
2023/07/27 04:11:50;;;;;;;;;;;17.90;79.30;;;;;;4969603;28;20334;-79
2023/07/27 04:14:16;;;;;;;;;;;17.90;79.30;;;;;;4969569;28;19914;-79
2023/07/27 04:16:41;;;;;;;;;;;17.90;79.30;;;;;;4984400;28;20190;-79
2023/07/27 04:19:07;;;;;;;;;;;17.90;79.30;;;;;;4969478;28;19915;-79
2023/07/27 04:21:33;;;;;;;;;;;17.90;79.30;;;;;;4969732;28;19997;-79
2023/07/27 04:23:58;;;;;;;;;;;17.80;79.20;;;;;;4984488;28;20061;-79
2023/07/27 04:26:24;;;;;;;;;;;17.80;79.20;;;;;;4984191;28;20162;-79
2023/07/27 04:28:49;;;;;;;;;;;17.80;79.30;;;;;;4969185;28;20005;-78
2023/07/27 04:31:15;;;;;;;;;;;17.70;79.30;;;;;;4984228;28;19918;-79
2023/07/27 04:33:40;;;;;;;;;;;17.70;79.30;;;;;;4969258;28;19918;-79
2023/07/27 04:36:06;;;;;;;;;;;17.70;79.30;;;;;;4969393;28;19925;-78
2023/07/27 04:38:31;;;;;;;;;;;17.70;79.30;;;;;;4969558;28;19914;-79
2023/07/27 04:40:57;;;;;;;;;;;17.70;79.30;;;;;;4969424;28;20453;-78
2023/07/27 04:43:23;;;;;;;;;;;17.70;79.30;;;;;;4969144;28;19910;-73
2023/07/27 04:45:48;;;;;;;;;;;17.70;79.40;;;;;;4968890;28;19940;-78
2023/07/27 04:48:14;;;;;;;;;;;17.80;79.40;;;;;;4969101;28;19914;-79
2023/07/27 04:50:39;;;;;;;;;;;17.80;79.40;;;;;;4969338;28;19965;-79
2023/07/27 04:53:05;;;;;;;;;;;17.90;79.40;;;;;;4969157;28;19918;-77
2023/07/27 04:55:30;;;;;;;;;;;17.90;79.40;;;;;;4968986;28;20013;-77
2023/07/27 04:57:56;;;;;;;;;;;17.90;79.40;;;;;;4967598;28;19914;-77
2023/07/27 05:00:22;;;;;;;;;;;17.90;79.40;;;;;;4969258;28;19927;-77
2023/07/27 05:02:47;;;;;;;;;;;17.90;79.40;;;;;;4972565;28;19933;-77
2023/07/27 05:05:13;;;;;;;;;;;17.90;79.50;;;;;;4971653;28;19925;-77
2023/07/27 05:07:38;;;;;;;;;;;17.90;79.50;;;;;;4972723;28;20231;-77
2023/07/27 05:10:04;;;;;;;;;;;17.90;79.50;;;;;;4971506;28;19933;-77
2023/07/27 05:12:32;;;;;;;;;;;17.90;79.50;;;;;;4972827;28;19918;-77
2023/07/27 05:15:00;;;;;;;;;;;17.80;79.40;;;;;;4972765;28;19917;-77
2023/07/27 05:17:26;;;;;;;;;;;17.90;79.50;;;;;;4972412;28;19921;-77
2023/07/27 05:19:53;;;;;;;;;;;17.90;79.50;;;;;;4972528;28;20293;-77
2023/07/27 05:22:19;;;;;;;;;;;17.90;79.50;;;;;;4987660;28;20248;-77
2023/07/27 05:24:44;;;;;;;;;;;17.90;79.40;;;;;;4973053;28;19937;-77
2023/07/27 05:27:10;;;;;;;;;;;17.90;79.50;;;;;;4987413;28;20290;-77
2023/07/27 05:29:35;;;;;;;;;;;17.90;79.50;;;;;;4987062;28;20311;-74
2023/07/27 05:32:01;;;;;;;;;;;17.90;79.40;;;;;;4972294;28;19910;-76
2023/07/27 05:34:26;;;;;;;;;;;17.90;79.50;;;;;;4972362;28;20422;-78
2023/07/27 05:36:52;;;;;;;;;;;17.90;79.50;;;;;;4972320;28;19965;-77
2023/07/27 05:39:18;;;;;;;;;;;17.90;79.50;;;;;;4987251;28;19922;-77
2023/07/27 05:41:43;;;;;;;;;;;17.90;79.40;;;;;;4972397;28;19914;-77
2023/07/27 05:44:09;;;;;;;;;;;17.90;79.40;;;;;;4987080;28;20294;-77
2023/07/27 05:46:34;;;;;;;;;;;17.80;79.40;;;;;;4972193;28;19922;-77
2023/07/27 05:49:00;;;;;;;;;;;17.90;79.60;;;;;;4971839;28;19961;-77
2023/07/27 05:51:25;;;;;;;;;;;17.90;79.60;;;;;;4972189;28;19915;-77
2023/07/27 05:53:52;;;;;;;;;;;18.00;79.50;;;;;;4971964;28;20350;-77
2023/07/27 05:56:17;;;;;;;;;;;18.00;79.40;;;;;;4954557;28;19917;-77
2023/07/27 05:58:43;;;;;;;;;;;18.00;79.30;;;;;;4971686;28;19910;-77
2023/07/27 06:01:09;;;;;;;;;;;18.10;79.30;;;;;;4986635;28;19914;-77
2023/07/27 06:03:34;;;;;;;;;;;18.10;79.20;;;;;;4971563;28;19918;-77
2023/07/27 06:06:00;;;;;;;;;;;18.20;79.40;;;;;;4971741;28;19918;-77
2023/07/27 06:08:26;;;;;;;;;;;18.30;79.40;;;;;;4971642;28;20302;-77
2023/07/27 06:11:03;;;;;;;;;;;18.30;79.30;;;;;;4971606;28;20005;-77
2023/07/27 06:13:29;;;;;;;;;;;18.30;79.20;;;;;;4971148;28;19910;-76
2023/07/27 06:15:55;;;;;;;;;;;18.30;79.30;;;;;;4971528;28;19922;-77
2023/07/27 06:18:20;;;;;;;;;;;18.40;79.40;;;;;;4971549;28;19921;-77
2023/07/27 06:20:46;;;;;;;;;;;18.40;79.40;;;;;;4971536;28;20301;-76
2023/07/27 06:23:11;;;;;;;;;;;18.40;79.40;;;;;;4971546;28;19920;-77
2023/07/27 06:25:41;;;;;;;;;;;18.40;79.40;;;;;;4986223;28;19960;-77
2023/07/27 06:28:07;;;;;;;;;;;18.40;79.40;;;;;;4971349;28;19921;-77
2023/07/27 06:30:35;;;;;;;;;;;18.50;79.50;;;;;;4971018;28;19930;-77
2023/07/27 06:33:00;;;;;;;;;;;18.50;79.40;;;;;;4971249;28;19914;-77
2023/07/27 06:35:26;;;;;;;;;;;18.60;79.40;;;;;;4970745;28;19925;-74
2023/07/27 06:37:51;;;;;;;;;;;18.70;79.40;;;;;;4970947;28;20008;-77
2023/07/27 06:40:17;;;;;;;;;;;18.70;79.30;;;;;;4971160;28;20094;-77
2023/07/27 06:42:42;;;;;;;;;;;18.70;79.10;;;;;;4985737;28;19914;-76
2023/07/27 06:45:08;;;;;;;;;;;18.60;79.00;;;;;;4970979;28;19921;-77
2023/07/27 06:47:34;;;;;;;;;;;18.50;78.90;;;;;;4985817;28;20104;-77
2023/07/27 06:49:59;;;;;;;;;;;18.30;79.00;;;;;;4970894;28;20170;-77
2023/07/27 06:52:25;;;;;;;;;;;18.30;79.30;;;;;;4985808;28;19915;-76
2023/07/27 06:54:50;;;;;;;;;;;18.20;79.30;;;;;;4970840;28;19973;-77
2023/07/27 06:57:16;;;;;;;;;;;18.30;79.60;;;;;;4970920;28;19923;-76
2023/07/27 06:59:42;;;;;;;;;;;18.50;79.60;;;;;;4971321;28;20035;-72
2023/07/27 07:02:08;;;;;;;;;;;18.50;79.30;;;;;;4972339;28;19961;-76
2023/07/27 07:04:33;;;;;;;;;;;18.50;79.40;;;;;;4986618;28;20028;-77
2023/07/27 07:06:59;;;;;;;;;;;18.60;79.20;;;;;;4985425;28;19918;-77
2023/07/27 07:09:25;;;;;;;;;;;18.60;79.20;;;;;;4985132;28;19925;-77
2023/07/27 07:11:50;;;;;;;;;;;18.60;79.80;;;;;;4985195;28;19945;-76
2023/07/27 07:14:16;;;;;;;;;;;18.60;79.40;;;;;;4970479;28;19910;-76
2023/07/27 07:16:42;;;;;;;;;;;18.70;79.30;;;;;;4970276;28;19918;-76
2023/07/27 07:19:07;;;;;;;;;;;18.70;79.40;;;;;;4970192;28;19924;-76
2023/07/27 07:21:33;;;;;;;;;;;18.70;79.40;;;;;;4985246;28;20371;-76
2023/07/27 07:23:59;;;;;;;;;;;18.70;79.40;;;;;;4969344;28;20285;-76
2023/07/27 07:26:24;;;;;;;;;;;18.70;79.40;;;;;;4984935;28;19957;-76
2023/07/27 07:28:50;;;;;;;;;;;18.80;79.50;;;;;;4985099;28;19924;-77
2023/07/27 07:31:15;;;;;;;;;;;19.10;79.90;;;;;;4968913;28;20014;-76
2023/07/27 07:33:41;;;;;;;;;;;19.40;79.80;;;;;;4985021;28;20338;-76
2023/07/27 07:36:07;;;;;;;;;;;19.80;79.60;;;;;;4969917;28;19996;-75
2023/07/27 07:38:32;;;;;;;;;;;20.40;79.70;;;;;;4969568;28;19953;-76
2023/07/27 07:40:58;;;;;;;;;;;21.30;79.40;;;;;;4969860;28;19918;-77
2023/07/27 07:43:23;;;;;;;;;;;21.90;78.60;;;;;;4984796;28;19945;-76
2023/07/27 07:45:49;;;;;;;;;;;22.20;77.90;;;;;;4969696;28;19933;-76
2023/07/27 07:48:14;;;;;;;;;;;22.10;77.50;;;;;;4969575;28;19923;-77
2023/07/27 07:50:40;;;;;;;;;;;21.70;77.70;;;;;;4969731;28;19922;-76
2023/07/27 07:53:06;;;;;;;;;;;21.40;77.90;;;;;;4969788;28;19969;-76
2023/07/27 07:55:37;;;;;;;;;;;21.10;78.30;;;;;;4984462;28;20282;-77
2023/07/27 07:58:03;;;;;;;;;;;20.90;78.50;;;;;;4952046;28;20016;-76
2023/07/27 08:00:28;;;;;;;;;;;20.70;78.90;;;;;;4969452;28;20021;-76
2023/07/27 08:02:54;;;;;;;;;;;20.60;79.00;;;;;;4969523;28;19929;-76
2023/07/27 08:05:20;;;;;;;;;;;20.60;79.20;;;;;;4969086;28;19929;-76
2023/07/27 08:07:45;;;;;;;;;;;20.50;79.20;;;;;;4969137;28;20008;-77
2023/07/27 08:10:11;;;;;;;;;;;20.50;79.40;;;;;;4970330;28;19914;-76
2023/07/27 08:12:38;;;;;;;;;;;20.70;79.60;;;;;;4970521;28;19914;-75
2023/07/27 08:15:04;;;;;;;;;;;20.90;79.60;;;;;;4970558;28;19996;-76
2023/07/27 08:17:30;;;;;;;;;;;21.10;79.40;;;;;;4985042;28;19914;-75
2023/07/27 08:19:56;;;;;;;;;;;21.30;79.10;;;;;;4970171;28;19914;-74
2023/07/27 08:22:21;;;;;;;;;;;21.30;78.80;;;;;;4970200;28;19916;-75
2023/07/27 08:24:47;;;;;;;;;;;21.30;79.10;;;;;;4969248;28;19919;-76
2023/07/27 08:27:13;;;;;;;;;;;21.60;79.30;;;;;;4969711;28;20369;-75
2023/07/27 08:29:39;;;;;;;;;;;21.80;79.50;;;;;;4969735;28;19926;-75
2023/07/27 08:32:05;;;;;;;;;;;22.40;79.50;;;;;;4969798;28;19914;-75
2023/07/27 08:34:31;;;;;;;;;;;22.60;78.90;;;;;;4969921;28;19914;-75
2023/07/27 08:36:56;;;;;;;;;;;22.70;78.80;;;;;;4969678;28;19957;-75
2023/07/27 08:39:22;;;;;;;;;;;22.70;78.90;;;;;;4952594;28;19982;-75
2023/07/27 08:41:48;;;;;;;;;;;22.60;78.70;;;;;;4953928;28;20379;-74
2023/07/27 08:44:13;;;;;;;;;;;22.50;78.70;;;;;;4969354;28;20370;-75
2023/07/27 08:46:40;;;;;;;;;;;22.60;79.30;;;;;;4951648;28;19918;-74
2023/07/27 08:49:08;;;;;;;;;;;22.90;79.20;;;;;;4951986;28;19924;-74
2023/07/27 08:51:34;;;;;;;;;;;22.90;78.80;;;;;;4951271;28;20126;-75
2023/07/27 08:54:00;;;;;;;;;;;23.00;79.20;;;;;;4968830;28;19944;-74
2023/07/27 08:56:25;;;;;;;;;;;23.10;78.80;;;;;;4978978;28;20017;-76
2023/07/27 08:58:51;;;;;;;;;;;23.00;78.70;;;;;;4944856;28;19914;-79
2023/07/27 09:01:17;;;;;;;;;;;23.00;79.00;;;;;;4948902;28;19929;-76
2023/07/27 09:03:43;;;;;;;;;;;23.10;79.10;;;;;;4969180;28;19925;-75
2023/07/27 09:06:09;;;;;;;;;;;23.10;79.00;;;;;;4968756;28;19921;-75
2023/07/27 09:08:34;;;;;;;;;;;22.90;78.90;;;;;;4969121;28;19922;-75
2023/07/27 09:11:05;;;;;;;;;;;22.80;79.10;;;;;;4970670;28;19914;-75
2023/07/27 09:13:31;;;;;;;;;;;22.70;79.10;;;;;;4969157;28;20443;-74
2023/07/27 09:15:57;;;;;;;;;;;22.60;79.20;;;;;;4968800;28;19918;-75
2023/07/27 09:18:22;;;;;;;;;;;22.50;79.30;;;;;;4955094;28;20387;-75
2023/07/27 09:20:48;;;;;;;;;;;22.50;79.20;;;;;;4942624;28;19915;-75
2023/07/27 09:23:20;;;;;;;;;;;22.40;79.40;;;;;;4974285;28;20395;-77
2023/07/27 09:25:52;;;;;;;;;;;22.40;79.50;;;;;;4971907;28;19918;-76
2023/07/27 09:28:25;;;;;;;;;;;22.40;79.40;;;;;;4968961;28;19940;-76
2023/07/27 09:30:50;;;;;;;;;;;22.40;79.40;;;;;;4951137;28;20443;-76
2023/07/27 09:33:20;;;;;;;;;;;22.40;79.30;;;;;;4956957;28;19922;-76
2023/07/27 09:35:48;;;;;;;;;;;22.30;79.30;;;;;;4952028;28;19909;-75
2023/07/27 09:38:13;;;;;;;;;;;22.20;79.30;;;;;;4968742;28;19914;-76
2023/07/27 09:40:39;;;;;;;;;;;22.10;79.20;;;;;;4961626;28;20388;-76
2023/07/27 09:43:05;;;;;;;;;;;22.00;79.30;;;;;;4968773;28;20000;-76
2023/07/27 09:45:34;;;;;;;;;;;21.90;79.50;;;;;;4974075;28;19932;-75
2023/07/27 09:48:00;;;;;;;;;;;21.90;79.80;;;;;;4970710;28;19910;-76
2023/07/27 09:50:26;;;;;;;;;;;22.00;79.80;;;;;;4972857;28;20001;-75
2023/07/27 09:52:51;;;;;;;;;;;22.10;79.70;;;;;;4980253;28;19915;-76
2023/07/27 09:55:17;;;;;;;;;;;22.10;79.60;;;;;;4972515;28;19914;-76
2023/07/27 09:57:43;;;;;;;;;;;22.10;79.50;;;;;;4980811;28;20470;-76
2023/07/27 10:00:09;;;;;;;;;;;22.20;79.60;;;;;;4972293;28;19951;-75
2023/07/27 10:02:35;;;;;;;;;;;22.40;79.80;;;;;;4972621;28;19933;-75
2023/07/27 10:05:02;;;;;;;;;;;22.60;79.70;;;;;;4972500;28;20351;-76
2023/07/27 10:07:28;;;;;;;;;;;22.90;79.70;;;;;;4954751;28;19918;-75
2023/07/27 10:10:12;;;;;;;;;;;23.20;79.80;;;;;;4972108;28;19922;-77
2023/07/27 10:12:38;;;;;;;;;;;23.50;79.50;;;;;;4970266;28;19941;-76
2023/07/27 10:15:22;;;;;;;;;;;23.70;79.10;;;;;;4947720;28;20558;-74
2023/07/27 10:17:51;;;;;;;;;;;23.60;78.80;;;;;;4967011;28;19938;-73
2023/07/27 10:20:25;;;;;;;;;;;23.50;79.00;;;;;;4973107;28;19984;-75
2023/07/27 10:22:52;;;;;;;;;;;23.50;79.10;;;;;;4969608;28;19950;-75
2023/07/27 10:25:17;;;;;;;;;;;23.50;79.20;;;;;;4953916;28;19914;-75
2023/07/27 10:27:53;;;;;;;;;;;23.60;79.40;;;;;;4971240;28;19996;-75
2023/07/27 10:30:19;;;;;;;;;;;23.60;79.40;;;;;;4971715;28;19926;-75
2023/07/27 10:33:20;;;;;;;;;;;23.60;79.40;;;;;;4971339;28;19972;-75
2023/07/27 10:36:02;;;;;;;;;;;23.60;79.40;;;;;;4911755;29;19949;-76
2023/07/27 10:38:35;;;;;;;;;;;23.60;79.90;;;;;;4966103;28;20314;-75
2023/07/27 10:41:13;;;;;;;;;;;23.70;79.50;;;;;;4971415;28;19914;-76
2023/07/27 10:43:59;;;;;;;;;;;24.00;79.70;;;;;;4970227;28;20012;-76
2023/07/27 10:46:24;;;;;;;;;;;24.20;79.60;;;;;;4970995;28;19914;-75
2023/07/27 10:49:09;;;;;;;;;;;24.70;79.80;;;;;;4954007;28;19924;-76
2023/07/27 10:51:34;;;;;;;;;;;25.10;79.70;;;;;;4977746;28;20035;-74
2023/07/27 10:54:00;;;;;;;;;;;25.40;79.50;;;;;;4953838;28;19964;-74
2023/07/27 10:56:26;;;;;;;;;;;25.60;79.10;;;;;;4971630;28;19921;-74
2023/07/27 10:58:55;;;;;;;;;;;25.60;78.80;;;;;;4971054;28;20045;-75
2023/07/27 11:01:21;;;;;;;;;;;25.60;78.80;;;;;;4971182;28;19910;-75
2023/07/27 11:03:47;;;;;;;;;;;25.60;78.90;;;;;;4971227;28;19922;-75
2023/07/27 11:06:13;;;;;;;;;;;25.60;79.20;;;;;;4959560;28;19919;-73
2023/07/27 11:08:40;;;;;;;;;;;25.90;79.60;;;;;;4970338;28;19940;-74
2023/07/27 11:11:16;;;;;;;;;;;26.20;79.70;;;;;;4970509;28;19922;-72
2023/07/27 11:13:42;;;;;;;;;;;26.40;79.60;;;;;;4970671;28;19944;-74
2023/07/27 11:16:08;;;;;;;;;;;26.40;79.50;;;;;;4953169;28;20023;-74
2023/07/27 11:18:34;;;;;;;;;;;26.60;79.60;;;;;;4971507;28;19914;-75
2023/07/27 11:21:02;;;;;;;;;;;26.70;79.40;;;;;;4977899;28;19993;-75
2023/07/27 11:23:28;;;;;;;;;;;27.10;79.90;;;;;;4953463;28;19945;-76
2023/07/27 11:25:54;;;;;;;;;;;27.30;79.40;;;;;;4970311;28;19914;-79
2023/07/27 11:28:21;;;;;;;;;;;27.20;79.00;;;;;;4961984;28;19918;-76
2023/07/27 11:30:48;;;;;;;;;;;27.00;78.80;;;;;;4970958;28;20412;-75
2023/07/27 11:33:14;;;;;;;;;;;26.80;79.00;;;;;;4969494;28;19942;-76
2023/07/27 11:35:46;;;;;;;;;;;26.60;79.00;;;;;;4969709;28;19934;-75
2023/07/27 11:38:12;;;;;;;;;;;26.30;78.90;;;;;;4977325;28;19918;-75
2023/07/27 11:40:38;;;;;;;;;;;25.90;79.00;;;;;;4969801;28;20000;-75
2023/07/27 11:43:04;;;;;;;;;;;25.80;79.60;;;;;;4970819;28;19915;-76
2023/07/27 11:45:32;;;;;;;;;;;26.30;81.00;;;;;;4970311;28;20247;-75
2023/07/27 11:47:58;;;;;;;;;;;27.20;81.50;;;;;;4976014;28;19910;-75
2023/07/27 11:50:24;;;;;;;;;;;27.90;80.90;;;;;;4960520;28;19914;-75
2023/07/27 11:52:51;;;;;;;;;;;28.40;80.90;;;;;;4969712;28;19914;-75
2023/07/27 11:55:16;;;;;;;;;;;28.60;79.90;;;;;;4970105;28;19914;-76
2023/07/27 11:57:48;;;;;;;;;;;28.60;79.70;;;;;;4953710;28;20374;-74
2023/07/27 12:00:14;;;;;;;;;;;28.40;79.30;;;;;;4970722;28;19922;-75
2023/07/27 12:02:40;;;;;;;;;;;28.20;79.30;;;;;;4970742;28;20373;-76
2023/07/27 12:05:06;;;;;;;;;;;27.90;79.20;;;;;;4969659;28;19920;-73
2023/07/27 12:07:32;;;;;;;;;;;27.50;79.10;;;;;;4969543;28;20353;-75
2023/07/27 12:09:58;;;;;;;;;;;27.20;79.30;;;;;;4976258;28;19937;-76
2023/07/27 12:12:24;;;;;;;;;;;26.80;79.20;;;;;;4969444;28;20356;-76
2023/07/27 12:14:54;;;;;;;;;;;26.30;79.50;;;;;;4970142;28;19968;-76
2023/07/27 12:17:23;;;;;;;;;;;26.10;79.70;;;;;;4969703;28;19914;-76
2023/07/27 12:19:48;;;;;;;;;;;25.80;79.60;;;;;;4969358;28;20273;-74
2023/07/27 12:22:14;;;;;;;;;;;25.60;79.40;;;;;;4978703;28;20007;-75
2023/07/27 12:24:43;;;;;;;;;;;25.70;80.50;;;;;;4982283;28;19988;-76
2023/07/27 12:27:09;;;;;;;;;;;26.10;80.80;;;;;;4969821;28;20430;-75
2023/07/27 12:29:34;;;;;;;;;;;26.40;80.70;;;;;;4970167;28;19930;-76
2023/07/27 12:32:00;;;;;;;;;;;27.10;81.40;;;;;;4968642;28;19934;-75
2023/07/27 12:34:25;;;;;;;;;;;27.70;81.20;;;;;;4970057;28;19914;-76
2023/07/27 12:36:51;;;;;;;;;;;28.10;81.00;;;;;;4984982;28;20116;-75
2023/07/27 12:39:18;;;;;;;;;;;28.20;80.40;;;;;;4969604;28;19914;-76
2023/07/27 12:41:44;;;;;;;;;;;28.20;80.10;;;;;;4969966;28;19918;-70
2023/07/27 12:44:09;;;;;;;;;;;28.20;79.70;;;;;;4984243;28;19914;-74
2023/07/27 12:46:35;;;;;;;;;;;28.00;79.40;;;;;;4984119;28;19926;-75
2023/07/27 12:49:00;;;;;;;;;;;27.50;78.70;;;;;;4984807;28;19915;-75
2023/07/27 12:51:26;;;;;;;;;;;27.00;78.60;;;;;;4969734;28;19921;-74
2023/07/27 12:53:52;;;;;;;;;;;26.50;79.40;;;;;;4969590;28;19915;-75
2023/07/27 12:56:18;;;;;;;;;;;26.30;79.80;;;;;;4966825;28;19961;-75
2023/07/27 12:58:43;;;;;;;;;;;26.60;80.70;;;;;;4944926;28;19926;-76
2023/07/27 13:01:09;;;;;;;;;;;27.40;81.80;;;;;;4935495;28;20017;-76
2023/07/27 13:03:36;;;;;;;;;;;28.20;81.70;;;;;;4943554;29;20371;-74
2023/07/27 13:06:04;;;;;;;;;;;28.70;81.50;;;;;;4932633;29;19991;-75
2023/07/27 13:08:29;;;;;;;;;;;29.20;81.50;;;;;;4950332;28;19914;-75
2023/07/27 13:10:55;;;;;;;;;;;29.20;80.70;;;;;;4950136;29;20014;-75
2023/07/27 13:13:21;;;;;;;;;;;29.00;80.20;;;;;;4950297;29;19974;-74
2023/07/27 13:15:46;;;;;;;;;;;28.80;80.50;;;;;;4949418;29;19914;-76
2023/07/27 13:18:12;;;;;;;;;;;28.90;80.60;;;;;;4950370;28;19965;-74
2023/07/27 13:20:39;;;;;;;;;;;29.00;80.80;;;;;;4933049;29;20009;-76
2023/07/27 13:23:05;;;;;;;;;;;28.80;80.20;;;;;;4936019;29;19933;-77
2023/07/27 13:25:30;;;;;;;;;;;28.60;80.80;;;;;;4954290;29;19962;-78
2023/07/27 13:27:56;;;;;;;;;;;28.80;81.20;;;;;;4955152;28;19910;-77
2023/07/27 13:30:21;;;;;;;;;;;28.80;80.80;;;;;;4961295;28;19926;-79
2023/07/27 13:32:47;;;;;;;;;;;28.50;80.60;;;;;;4974089;28;19918;-77
2023/07/27 13:35:13;;;;;;;;;;;28.40;80.50;;;;;;4974257;28;19917;-76
2023/07/27 13:37:39;;;;;;;;;;;28.30;80.70;;;;;;4973536;28;19918;-77
2023/07/27 13:40:05;;;;;;;;;;;28.40;80.80;;;;;;4975257;28;20394;-74
2023/07/27 13:42:31;;;;;;;;;;;28.40;80.60;;;;;;4955445;28;19914;-74
2023/07/27 13:44:56;;;;;;;;;;;28.50;80.40;;;;;;4972577;28;19915;-75
2023/07/27 13:47:22;;;;;;;;;;;28.30;80.30;;;;;;4960838;28;19914;-74
2023/07/27 13:49:47;;;;;;;;;;;28.20;80.20;;;;;;4962518;28;19973;-76
2023/07/27 13:52:13;;;;;;;;;;;28.10;80.00;;;;;;4972243;28;20366;-74
2023/07/27 13:54:39;;;;;;;;;;;27.90;80.10;;;;;;4971906;28;20008;-74
2023/07/27 13:57:05;;;;;;;;;;;27.80;80.20;;;;;;4971594;28;19918;-74
2023/07/27 13:59:30;;;;;;;;;;;27.60;80.20;;;;;;4971856;28;20449;-74
2023/07/27 14:01:57;;;;;;;;;;;27.40;80.30;;;;;;4971511;28;20009;-75
2023/07/27 14:04:22;;;;;;;;;;;27.30;80.40;;;;;;4962068;28;19914;-74
2023/07/27 14:06:48;;;;;;;;;;;27.30;80.30;;;;;;4971821;28;19973;-74
2023/07/27 14:09:16;;;;;;;;;;;27.20;80.20;;;;;;4971629;28;20416;-74
2023/07/27 14:11:41;;;;;;;;;;;27.10;80.10;;;;;;4971503;28;19934;-74
2023/07/27 14:14:07;;;;;;;;;;;27.00;80.10;;;;;;4978232;28;19964;-75